sensor_id;sensor_type;location;lat;lon;timestamp;pressure;altitude;pressure_sealevel;temperature;humidity
4022;BME280;2025;48.260;16.432;2022-12-07T00:01:27;99669.00;;;5.78;100.00
4022;BME280;2025;48.260;16.432;2022-12-07T00:03:57;99663.75;;;5.77;100.00
4022;BME280;2025;48.260;16.432;2022-12-07T00:06:30;99663.75;;;5.77;100.00
4022;BME280;2025;48.260;16.432;2022-12-07T00:08:57;99665.50;;;5.78;100.00
4022;BME280;2025;48.260;16.432;2022-12-07T00:11:25;99661.88;;;5.71;100.00
4022;BME280;2025;48.260;16.432;2022-12-07T00:13:53;99669.00;;;5.78;100.00
4022;BME280;2025;48.260;16.432;2022-12-07T00:16:22;99665.47;;;5.76;100.00
4022;BME280;2025;48.260;16.432;2022-12-07T00:18:49;99663.72;;;5.75;100.00
4022;BME280;2025;48.260;16.432;2022-12-07T00:21:19;99661.13;;;5.75;100.00
4022;BME280;2025;48.260;16.432;2022-12-07T00:23:47;99662.84;;;5.75;100.00
4022;BME280;2025;48.260;16.432;2022-12-07T00:26:16;99667.16;;;5.74;100.00
4022;BME280;2025;48.260;16.432;2022-12-07T00:28:45;99668.84;;;5.72;100.00
4022;BME280;2025;48.260;16.432;2022-12-07T00:31:13;99671.66;;;5.82;100.00
4022;BME280;2025;48.260;16.432;2022-12-07T00:33:40;99658.31;;;5.68;100.00
4022;BME280;2025;48.260;16.432;2022-12-07T00:36:09;99663.84;;;5.80;100.00
4022;BME280;2025;48.260;16.432;2022-12-07T00:38:38;99662.94;;;5.79;100.00
4022;BME280;2025;48.260;16.432;2022-12-07T00:41:07;99661.00;;;5.71;100.00
4022;BME280;2025;48.260;16.432;2022-12-07T00:43:34;99661.84;;;5.70;100.00
4022;BME280;2025;48.260;16.432;2022-12-07T00:46:01;99660.28;;;5.76;100.00
4022;BME280;2025;48.260;16.432;2022-12-07T00:48:28;99668.84;;;5.72;100.00
4022;BME280;2025;48.260;16.432;2022-12-07T00:50:55;99659.16;;;5.67;100.00
4022;BME280;2025;48.260;16.432;2022-12-07T00:53:22;99664.56;;;5.74;100.00
4022;BME280;2025;48.260;16.432;2022-12-07T00:55:51;99661.19;;;5.78;100.00
4022;BME280;2025;48.260;16.432;2022-12-07T00:58:19;99659.03;;;5.62;100.00
4022;BME280;2025;48.260;16.432;2022-12-07T01:00:46;99656.25;;;5.56;100.00
4022;BME280;2025;48.260;16.432;2022-12-07T01:03:14;99660.72;;;5.60;100.00
4022;BME280;2025;48.260;16.432;2022-12-07T01:05:49;99654.56;;;5.57;100.00
4022;BME280;2025;48.260;16.432;2022-12-07T01:08:17;99654.63;;;5.60;100.00
4022;BME280;2025;48.260;16.432;2022-12-07T01:10:43;99656.44;;;5.62;100.00
4022;BME280;2025;48.260;16.432;2022-12-07T01:13:12;99664.22;;;5.62;100.00
4022;BME280;2025;48.260;16.432;2022-12-07T01:15:39;99662.44;;;5.60;100.00
4022;BME280;2025;48.260;16.432;2022-12-07T01:18:06;99672.16;;;5.67;100.00
4022;BME280;2025;48.260;16.432;2022-12-07T01:20:34;99668.78;;;5.71;100.00
4022;BME280;2025;48.260;16.432;2022-12-07T01:23:01;99664.38;;;5.68;100.00
4022;BME280;2025;48.260;16.432;2022-12-07T01:25:28;99666.00;;;5.63;100.00
4022;BME280;2025;48.260;16.432;2022-12-07T01:27:54;99661.63;;;5.62;100.00
4022;BME280;2025;48.260;16.432;2022-12-07T01:30:23;99661.66;;;5.64;100.00
4022;BME280;2025;48.260;16.432;2022-12-07T01:32:50;99660.63;;;5.57;100.00
4022;BME280;2025;48.260;16.432;2022-12-07T01:35:16;99658.69;;;5.50;100.00
4022;BME280;2025;48.260;16.432;2022-12-07T01:37:43;99658.03;;;5.57;100.00
4022;BME280;2025;48.260;16.432;2022-12-07T01:40:11;99655.38;;;5.56;100.00
4022;BME280;2025;48.260;16.432;2022-12-07T01:42:38;99663.94;;;5.52;100.00
4022;BME280;2025;48.260;16.432;2022-12-07T01:45:38;99660.59;;;5.56;100.00
4022;BME280;2025;48.260;16.432;2022-12-07T01:48:07;99665.50;;;5.45;100.00
4022;BME280;2025;48.260;16.432;2022-12-07T01:50:36;99657.81;;;5.50;100.00
4022;BME280;2025;48.260;16.432;2022-12-07T01:53:06;99656.22;;;5.55;100.00
4022;BME280;2025;48.260;16.432;2022-12-07T01:55:39;99654.22;;;5.44;100.00
4022;BME280;2025;48.260;16.432;2022-12-07T01:58:07;99652.50;;;5.45;100.00
4022;BME280;2025;48.260;16.432;2022-12-07T02:00:34;99652.47;;;5.43;100.00
4022;BME280;2025;48.260;16.432;2022-12-07T02:03:05;99649.16;;;5.49;100.00
4022;BME280;2025;48.260;16.432;2022-12-07T02:05:37;99653.47;;;5.48;100.00
4022;BME280;2025;48.260;16.432;2022-12-07T02:08:05;99647.50;;;5.53;100.00
4022;BME280;2025;48.260;16.432;2022-12-07T02:10:32;99656.22;;;5.55;100.00
4022;BME280;2025;48.260;16.432;2022-12-07T02:13:02;99643.16;;;5.52;100.00
4022;BME280;2025;48.260;16.432;2022-12-07T02:15:38;99651.81;;;5.52;100.00
4022;BME280;2025;48.260;16.432;2022-12-07T02:18:17;99650.03;;;5.50;100.00
4022;BME280;2025;48.260;16.432;2022-12-07T02:20:52;99644.78;;;5.48;100.00
4022;BME280;2025;48.260;16.432;2022-12-07T02:23:59;99653.41;;;5.47;100.00
4022;BME280;2025;48.260;16.432;2022-12-07T02:26:46;99648.06;;;5.41;100.00
4022;BME280;2025;48.260;16.432;2022-12-07T02:29:23;99645.50;;;5.42;100.00
4022;BME280;2025;48.260;16.432;2022-12-07T02:31:57;99643.09;;;5.50;100.00
4022;BME280;2025;48.260;16.432;2022-12-07T02:34:33;99643.03;;;5.47;100.00
4022;BME280;2025;48.260;16.432;2022-12-07T02:37:09;99645.22;;;5.32;100.00
4022;BME280;2025;48.260;16.432;2022-12-07T02:39:42;99641.25;;;5.46;100.00
4022;BME280;2025;48.260;16.432;2022-12-07T02:42:13;99645.38;;;5.38;100.00
4022;BME280;2025;48.260;16.432;2022-12-07T02:44:44;99652.03;;;5.28;100.00
4022;BME280;2025;48.260;16.432;2022-12-07T02:47:14;99635.09;;;5.42;100.00
4022;BME280;2025;48.260;16.432;2022-12-07T02:49:43;99648.72;;;5.34;100.00
4022;BME280;2025;48.260;16.432;2022-12-07T02:52:11;99641.06;;;5.38;100.00
4022;BME280;2025;48.260;16.432;2022-12-07T02:54:38;99642.72;;;5.36;100.00
4022;BME280;2025;48.260;16.432;2022-12-07T02:57:14;99646.50;;;5.47;100.00
4022;BME280;2025;48.260;16.432;2022-12-07T03:00:00;99647.97;;;5.38;100.00
4022;BME280;2025;48.260;16.432;2022-12-07T03:02:34;99641.09;;;5.40;100.00
4022;BME280;2025;48.260;16.432;2022-12-07T03:05:27;99642.59;;;5.32;100.00
4022;BME280;2025;48.260;16.432;2022-12-07T03:08:02;99637.38;;;5.30;100.00
4022;BME280;2025;48.260;16.432;2022-12-07T03:10:38;99633.06;;;5.31;100.00
4022;BME280;2025;48.260;16.432;2022-12-07T03:13:09;99636.44;;;5.28;100.00
4022;BME280;2025;48.260;16.432;2022-12-07T03:15:45;99639.97;;;5.30;100.00
4022;BME280;2025;48.260;16.432;2022-12-07T03:18:17;99643.31;;;5.26;100.00
4022;BME280;2025;48.260;16.432;2022-12-07T03:20:46;99643.28;;;5.25;100.00
4022;BME280;2025;48.260;16.432;2022-12-07T03:23:15;99640.88;;;5.32;100.00
4022;BME280;2025;48.260;16.432;2022-12-07T03:25:47;99632.94;;;5.26;100.00
4022;BME280;2025;48.260;16.432;2022-12-07T03:28:18;99636.31;;;5.24;100.00
4022;BME280;2025;48.260;16.432;2022-12-07T03:30:52;99646.72;;;5.24;100.00
4022;BME280;2025;48.260;16.432;2022-12-07T03:33:25;99638.03;;;5.23;100.00
4022;BME280;2025;48.260;16.432;2022-12-07T03:35:59;99638.84;;;5.21;100.00
4022;BME280;2025;48.260;16.432;2022-12-07T03:38:32;99639.31;;;5.37;100.00
4022;BME280;2025;48.260;16.432;2022-12-07T03:41:06;99641.78;;;5.33;100.00
4022;BME280;2025;48.260;16.432;2022-12-07T03:43:37;99638.13;;;5.26;100.00
4022;BME280;2025;48.260;16.432;2022-12-07T03:46:17;99649.44;;;5.28;100.00
4022;BME280;2025;48.260;16.432;2022-12-07T03:48:53;99644.94;;;5.23;100.00
4022;BME280;2025;48.260;16.432;2022-12-07T03:51:26;99645.84;;;5.23;100.00
4022;BME280;2025;48.260;16.432;2022-12-07T03:53:59;99649.31;;;5.24;100.00
4022;BME280;2025;48.260;16.432;2022-12-07T03:56:29;99651.91;;;5.24;100.00
4022;BME280;2025;48.260;16.432;2022-12-07T03:58:56;99649.94;;;5.16;100.00
4022;BME280;2025;48.260;16.432;2022-12-07T04:01:25;99656.31;;;5.26;100.00
4022;BME280;2025;48.260;16.432;2022-12-07T04:03:52;99650.19;;;5.24;100.00
4022;BME280;2025;48.260;16.432;2022-12-07T04:06:19;99655.44;;;5.26;100.00
4022;BME280;2025;48.260;16.432;2022-12-07T04:08:46;99651.03;;;5.23;100.00
4022;BME280;2025;48.260;16.432;2022-12-07T04:11:12;99648.34;;;5.20;100.00
4022;BME280;2025;48.260;16.432;2022-12-07T04:13:39;99646.63;;;5.21;100.00
4022;BME280;2025;48.260;16.432;2022-12-07T04:16:25;99650.94;;;5.20;100.00
4022;BME280;2025;48.260;16.432;2022-12-07T04:18:52;99645.88;;;5.25;100.00
4022;BME280;2025;48.260;16.432;2022-12-07T04:21:19;99650.03;;;5.20;100.00
4022;BME280;2025;48.260;16.432;2022-12-07T04:23:46;99653.72;;;5.26;100.00
4022;BME280;2025;48.260;16.432;2022-12-07T04:26:13;99650.19;;;5.24;100.00
4022;BME280;2025;48.260;16.432;2022-12-07T04:28:40;99650.03;;;5.20;100.00
4022;BME280;2025;48.260;16.432;2022-12-07T04:31:07;99652.78;;;5.24;100.00
4022;BME280;2025;48.260;16.432;2022-12-07T04:33:35;99652.75;;;5.23;100.00
4022;BME280;2025;48.260;16.432;2022-12-07T04:36:02;99659.66;;;5.22;100.00
4022;BME280;2025;48.260;16.432;2022-12-07T04:38:29;99658.03;;;5.26;100.00
4022;BME280;2025;48.260;16.432;2022-12-07T04:40:56;99648.06;;;5.11;100.00
4022;BME280;2025;48.260;16.432;2022-12-07T04:43:23;99658.44;;;5.11;100.00
4022;BME280;2025;48.260;16.432;2022-12-07T04:45:50;99653.47;;;5.19;100.00
4022;BME280;2025;48.260;16.432;2022-12-07T04:48:17;99645.41;;;5.09;100.00
4022;BME280;2025;48.260;16.432;2022-12-07T04:50:47;99645.59;;;5.15;100.00
4022;BME280;2025;48.260;16.432;2022-12-07T04:53:15;99655.88;;;5.12;100.00
4022;BME280;2025;48.260;16.432;2022-12-07T04:55:42;99654.22;;;5.14;100.00
4022;BME280;2025;48.260;16.432;2022-12-07T04:58:09;99658.47;;;5.12;100.00
4022;BME280;2025;48.260;16.432;2022-12-07T05:00:36;99650.69;;;5.12;100.00
4022;BME280;2025;48.260;16.432;2022-12-07T05:03:03;99649.72;;;5.09;100.00
4022;BME280;2025;48.260;16.432;2022-12-07T05:05:30;99649.72;;;5.09;100.00
4022;BME280;2025;48.260;16.432;2022-12-07T05:07:58;99645.31;;;5.06;100.00
4022;BME280;2025;48.260;16.432;2022-12-07T05:10:25;99646.16;;;5.05;100.00
4022;BME280;2025;48.260;16.432;2022-12-07T05:12:52;99645.72;;;4.90;100.00
4022;BME280;2025;48.260;16.432;2022-12-07T05:15:19;99640.44;;;4.87;100.00
4022;BME280;2025;48.260;16.432;2022-12-07T05:17:46;99643.13;;;4.90;100.00
4022;BME280;2025;48.260;16.432;2022-12-07T05:20:13;99652.75;;;4.94;100.00
4022;BME280;2025;48.260;16.432;2022-12-07T05:22:40;99643.22;;;4.93;100.00
4022;BME280;2025;48.260;16.432;2022-12-07T05:25:09;99644.03;;;4.92;100.00
4022;BME280;2025;48.260;16.432;2022-12-07T05:27:36;99644.13;;;4.95;100.00
4022;BME280;2025;48.260;16.432;2022-12-07T05:30:04;99653.63;;;4.95;100.00
4022;BME280;2025;48.260;16.432;2022-12-07T05:32:31;99641.50;;;4.94;100.00
4022;BME280;2025;48.260;16.432;2022-12-07T05:34:58;99641.34;;;4.89;100.00
4022;BME280;2025;48.260;16.432;2022-12-07T05:37:24;99634.34;;;4.87;100.00
4022;BME280;2025;48.260;16.432;2022-12-07T05:39:51;99640.69;;;4.96;100.00
4022;BME280;2025;48.260;16.432;2022-12-07T05:42:20;99634.41;;;4.88;100.00
4022;BME280;2025;48.260;16.432;2022-12-07T05:44:47;99643.03;;;4.87;100.00
4022;BME280;2025;48.260;16.432;2022-12-07T05:47:15;99644.88;;;4.91;100.00
4022;BME280;2025;48.260;16.432;2022-12-07T05:49:42;99646.72;;;4.95;100.00
4022;BME280;2025;48.260;16.432;2022-12-07T05:52:09;99651.03;;;4.95;100.00
4022;BME280;2025;48.260;16.432;2022-12-07T05:54:36;99641.44;;;4.92;100.00
4022;BME280;2025;48.260;16.432;2022-12-07T05:57:03;99650.25;;;4.97;100.00
4022;BME280;2025;48.260;16.432;2022-12-07T05:59:31;99646.56;;;4.89;100.00
4022;BME280;2025;48.260;16.432;2022-12-07T06:01:58;99646.38;;;4.83;100.00
4022;BME280;2025;48.260;16.432;2022-12-07T06:04:27;99650.91;;;4.90;100.00
4022;BME280;2025;48.260;16.432;2022-12-07T06:06:54;99658.56;;;4.86;100.00
4022;BME280;2025;48.260;16.432;2022-12-07T06:09:23;99658.50;;;4.84;100.00
4022;BME280;2025;48.260;16.432;2022-12-07T06:11:50;99660.13;;;4.80;100.00
4022;BME280;2025;48.260;16.432;2022-12-07T06:14:36;99651.66;;;4.86;100.00
4022;BME280;2025;48.260;16.432;2022-12-07T06:17:03;99661.13;;;4.84;100.00
4022;BME280;2025;48.260;16.432;2022-12-07T06:19:30;99659.34;;;4.83;100.00
4022;BME280;2025;48.260;16.432;2022-12-07T06:21:57;99655.75;;;4.78;100.00
4022;BME280;2025;48.260;16.432;2022-12-07T06:24:24;99660.13;;;4.80;100.00
4022;BME280;2025;48.260;16.432;2022-12-07T06:26:51;99646.97;;;4.74;100.00
4022;BME280;2025;48.260;16.432;2022-12-07T06:29:18;99647.81;;;4.73;100.00
4022;BME280;2025;48.260;16.432;2022-12-07T06:31:47;99647.53;;;4.64;100.00
4022;BME280;2025;48.260;16.432;2022-12-07T06:34:16;99654.44;;;4.64;100.00
4022;BME280;2025;48.260;16.432;2022-12-07T06:36:43;99657.13;;;4.67;100.00
4022;BME280;2025;48.260;16.432;2022-12-07T06:39:11;99659.78;;;4.68;100.00
4022;BME280;2025;48.260;16.432;2022-12-07T06:41:39;99657.41;;;4.76;100.00
4022;BME280;2025;48.260;16.432;2022-12-07T06:44:06;99651.19;;;4.71;100.00
4022;BME280;2025;48.260;16.432;2022-12-07T06:46:33;99653.84;;;4.72;100.00
4022;BME280;2025;48.260;16.432;2022-12-07T06:49:03;99652.22;;;4.76;100.00
4022;BME280;2025;48.260;16.432;2022-12-07T06:51:31;99660.78;;;4.73;100.00
4022;BME280;2025;48.260;16.432;2022-12-07T06:53:58;99665.38;;;4.82;100.00
4022;BME280;2025;48.260;16.432;2022-12-07T06:56:25;99662.78;;;4.82;100.00
4022;BME280;2025;48.260;16.432;2022-12-07T06:58:52;99667.03;;;4.80;100.00
4022;BME280;2025;48.260;16.432;2022-12-07T07:01:19;99663.81;;;4.87;100.00
4022;BME280;2025;48.260;16.432;2022-12-07T07:03:47;99662.88;;;4.85;100.00
4022;BME280;2025;48.260;16.432;2022-12-07T07:06:15;99675.84;;;4.85;100.00
4022;BME280;2025;48.260;16.432;2022-12-07T07:08:42;99665.59;;;4.90;100.00
4022;BME280;2025;48.260;16.432;2022-12-07T07:11:09;99669.09;;;4.90;100.00
4022;BME280;2025;48.260;16.432;2022-12-07T07:13:37;99669.13;;;4.92;100.00
4022;BME280;2025;48.260;16.432;2022-12-07T07:16:04;99665.16;;;5.04;100.00
4022;BME280;2025;48.260;16.432;2022-12-07T07:18:32;99667.78;;;5.04;100.00
4022;BME280;2025;48.260;16.432;2022-12-07T07:20:58;99673.00;;;5.06;100.00
4022;BME280;2025;48.260;16.432;2022-12-07T07:23:27;99670.28;;;5.01;100.00
4022;BME280;2025;48.260;16.432;2022-12-07T07:25:54;99674.72;;;5.05;100.00
4022;BME280;2025;48.260;16.432;2022-12-07T07:28:22;99675.78;;;5.12;100.00
4022;BME280;2025;48.260;16.432;2022-12-07T07:30:49;99674.06;;;5.12;100.00
4022;BME280;2025;48.260;16.432;2022-12-07T07:33:16;99682.75;;;5.13;100.00
4022;BME280;2025;48.260;16.432;2022-12-07T07:35:42;99681.16;;;5.18;100.00
4022;BME280;2025;48.260;16.432;2022-12-07T07:38:09;99682.81;;;5.16;100.00
4022;BME280;2025;48.260;16.432;2022-12-07T07:40:38;99684.72;;;5.20;100.00
4022;BME280;2025;48.260;16.432;2022-12-07T07:43:05;99694.19;;;5.20;100.00
4022;BME280;2025;48.260;16.432;2022-12-07T07:45:31;99693.69;;;5.31;100.00
4022;BME280;2025;48.260;16.432;2022-12-07T07:47:58;99686.94;;;5.38;100.00
4022;BME280;2025;48.260;16.432;2022-12-07T07:50:25;99690.28;;;5.34;100.00
4022;BME280;2025;48.260;16.432;2022-12-07T07:52:52;99686.03;;;5.36;100.00
4022;BME280;2025;48.260;16.432;2022-12-07T07:55:19;99688.09;;;5.47;100.00
4022;BME280;2025;48.260;16.432;2022-12-07T07:57:47;99683.81;;;5.50;100.00
4022;BME280;2025;48.260;16.432;2022-12-07T08:00:15;99677.81;;;5.52;100.00
4022;BME280;2025;48.260;16.432;2022-12-07T08:02:43;99673.59;;;5.56;100.00
4022;BME280;2025;48.260;16.432;2022-12-07T08:05:12;99667.50;;;5.55;100.00
4022;BME280;2025;48.260;16.432;2022-12-07T08:07:39;99670.94;;;5.54;100.00
4022;BME280;2025;48.260;16.432;2022-12-07T08:10:08;99678.31;;;5.70;100.00
4022;BME280;2025;48.260;16.432;2022-12-07T08:12:36;99684.31;;;5.68;100.00
4022;BME280;2025;48.260;16.432;2022-12-07T08:15:26;99697.44;;;5.72;100.00
4022;BME280;2025;48.260;16.432;2022-12-07T08:17:53;99690.47;;;5.71;100.00
4022;BME280;2025;48.260;16.432;2022-12-07T08:20:21;99687.94;;;5.74;100.00
4022;BME280;2025;48.260;16.432;2022-12-07T08:22:48;99690.34;;;5.67;100.00
4022;BME280;2025;48.260;16.432;2022-12-07T08:25:15;99700.81;;;5.70;100.00
4022;BME280;2025;48.260;16.432;2022-12-07T08:27:42;99698.25;;;5.71;100.00
4022;BME280;2025;48.260;16.432;2022-12-07T08:30:09;99689.75;;;5.77;100.00
4022;BME280;2025;48.260;16.432;2022-12-07T08:32:38;99702.75;;;5.77;100.00
4022;BME280;2025;48.260;16.432;2022-12-07T08:35:06;99695.03;;;5.80;100.00
4022;BME280;2025;48.260;16.432;2022-12-07T08:37:34;99701.13;;;5.80;100.00
4022;BME280;2025;48.260;16.432;2022-12-07T08:40:02;99703.03;;;5.88;100.00
4022;BME280;2025;48.260;16.432;2022-12-07T08:42:29;99707.28;;;5.84;100.00
4022;BME280;2025;48.260;16.432;2022-12-07T08:45:04;99714.06;;;5.79;100.00
4022;BME280;2025;48.260;16.432;2022-12-07T08:47:32;99717.59;;;5.81;100.00
4022;BME280;2025;48.260;16.432;2022-12-07T08:50:01;99718.59;;;5.86;100.00
4022;BME280;2025;48.260;16.432;2022-12-07T08:52:29;99730.00;;;5.90;100.00
4022;BME280;2025;48.260;16.432;2022-12-07T08:54:57;99722.28;;;5.93;100.00
4022;BME280;2025;48.260;16.432;2022-12-07T08:57:25;99714.22;;;5.85;100.00
4022;BME280;2025;48.260;16.432;2022-12-07T08:59:53;99724.13;;;5.97;100.00
4022;BME280;2025;48.260;16.432;2022-12-07T09:02:20;99725.16;;;6.03;100.00
4022;BME280;2025;48.260;16.432;2022-12-07T09:04:47;99717.06;;;5.93;100.00
4022;BME280;2025;48.260;16.432;2022-12-07T09:07:15;99723.34;;;6.01;100.00
4022;BME280;2025;48.260;16.432;2022-12-07T09:09:42;99724.13;;;5.97;100.00
4022;BME280;2025;48.260;16.432;2022-12-07T09:12:09;99720.75;;;6.01;100.00
4022;BME280;2025;48.260;16.432;2022-12-07T09:14:36;99710.00;;;5.89;100.00
4022;BME280;2025;48.260;16.432;2022-12-07T09:17:07;99726.59;;;5.92;100.00
4022;BME280;2025;48.260;16.432;2022-12-07T09:19:34;99726.69;;;5.95;100.00
4022;BME280;2025;48.260;16.432;2022-12-07T09:22:01;99723.16;;;5.93;100.00
4022;BME280;2025;48.260;16.432;2022-12-07T09:24:31;99713.88;;;6.03;100.00
4022;BME280;2025;48.260;16.432;2022-12-07T09:26:58;99715.97;;;6.18;100.00
4022;BME280;2025;48.260;16.432;2022-12-07T09:29:25;99706.28;;;6.47;100.00
4022;BME280;2025;48.260;16.432;2022-12-07T09:31:52;99705.16;;;6.71;100.00
4022;BME280;2025;48.260;16.432;2022-12-07T09:34:19;99693.59;;;6.96;100.00
4022;BME280;2025;48.260;16.432;2022-12-07T09:36:47;99702.47;;;7.06;100.00
4022;BME280;2025;48.260;16.432;2022-12-07T09:39:14;99704.19;;;7.04;100.00
4022;BME280;2025;48.260;16.432;2022-12-07T09:41:44;99689.94;;;6.90;100.00
4022;BME280;2025;48.260;16.432;2022-12-07T09:44:12;99688.75;;;7.13;100.00
4022;BME280;2025;48.260;16.432;2022-12-07T09:46:42;99688.84;;;7.18;100.00
4022;BME280;2025;48.260;16.432;2022-12-07T09:49:12;99698.50;;;7.23;100.00
4022;BME280;2025;48.260;16.432;2022-12-07T09:51:41;99698.28;;;7.13;100.00
4022;BME280;2025;48.260;16.432;2022-12-07T09:54:11;99696.53;;;7.12;100.00
4022;BME280;2025;48.260;16.432;2022-12-07T09:56:39;99682.84;;;6.83;100.00
4022;BME280;2025;48.260;16.432;2022-12-07T09:59:13;99694.81;;;7.14;100.00
4022;BME280;2025;48.260;16.432;2022-12-07T10:01:42;99681.13;;;7.22;100.00
4022;BME280;2025;48.260;16.432;2022-12-07T10:04:12;99681.81;;;7.14;100.00
4022;BME280;2025;48.260;16.432;2022-12-07T10:06:41;99685.78;;;6.96;100.00
4022;BME280;2025;48.260;16.432;2022-12-07T10:09:11;99683.19;;;6.98;100.00
4022;BME280;2025;48.260;16.432;2022-12-07T10:11:58;99676.78;;;6.84;100.00
4022;BME280;2025;48.260;16.432;2022-12-07T10:14:27;99680.34;;;6.87;100.00
4022;BME280;2025;48.260;16.432;2022-12-07T10:16:54;99680.22;;;7.22;100.00
4022;BME280;2025;48.260;16.432;2022-12-07T10:19:24;99678.22;;;7.51;100.00
4022;BME280;2025;48.260;16.432;2022-12-07T10:22:03;99668.09;;;7.67;100.00
4022;BME280;2025;48.260;16.432;2022-12-07T10:24:30;99664.97;;;7.87;100.00
4022;BME280;2025;48.260;16.432;2022-12-07T10:26:57;99675.16;;;8.21;100.00
4022;BME280;2025;48.260;16.432;2022-12-07T10:29:29;99660.66;;;8.94;100.00
4022;BME280;2025;48.260;16.432;2022-12-07T10:31:59;99676.56;;;9.11;98.48
4022;BME280;2025;48.260;16.432;2022-12-07T10:34:28;99664.38;;;9.13;94.67
4022;BME280;2025;48.260;16.432;2022-12-07T10:37:13;99663.66;;;8.63;98.61
4022;BME280;2025;48.260;16.432;2022-12-07T10:39:42;99661.88;;;8.60;92.02
4022;BME280;2025;48.260;16.432;2022-12-07T10:42:16;99668.13;;;8.70;91.06
4022;BME280;2025;48.260;16.432;2022-12-07T10:44:46;99664.16;;;8.39;87.55
4022;BME280;2025;48.260;16.432;2022-12-07T10:47:25;99662.03;;;8.70;87.50
4022;BME280;2025;48.260;16.432;2022-12-07T10:50:42;99660.94;;;9.16;84.47
4022;BME280;2025;48.260;16.432;2022-12-07T10:53:24;99652.38;;;9.29;83.19
4022;BME280;2025;48.260;16.432;2022-12-07T10:56:18;99646.13;;;9.16;82.96
4022;BME280;2025;48.260;16.432;2022-12-07T10:59:00;99648.59;;;9.06;81.89
4022;BME280;2025;48.260;16.432;2022-12-07T11:01:34;99651.19;;;9.04;83.76
4022;BME280;2025;48.260;16.432;2022-12-07T11:04:18;99643.88;;;9.48;73.11
4022;BME280;2025;48.260;16.432;2022-12-07T11:06:53;99649.63;;;9.18;76.54
4022;BME280;2025;48.260;16.432;2022-12-07T11:09:35;99663.81;;;8.72;77.03
4022;BME280;2025;48.260;16.432;2022-12-07T11:12:11;99661.59;;;8.42;76.68
4022;BME280;2025;48.260;16.432;2022-12-07T11:14:46;99651.47;;;8.11;78.65
4022;BME280;2025;48.260;16.432;2022-12-07T11:17:26;99657.75;;;7.72;75.83
4022;BME280;2025;48.260;16.432;2022-12-07T11:20:04;99655.34;;;7.83;75.78
4022;BME280;2025;48.260;16.432;2022-12-07T11:22:38;99652.69;;;7.81;76.62
4022;BME280;2025;48.260;16.432;2022-12-07T11:25:17;99654.22;;;7.68;76.75
4022;BME280;2025;48.260;16.432;2022-12-07T11:27:51;99645.09;;;7.47;78.01
4022;BME280;2025;48.260;16.432;2022-12-07T11:30:23;99656.53;;;7.53;77.63
4022;BME280;2025;48.260;16.432;2022-12-07T11:33:10;99649.28;;;7.37;74.55
4022;BME280;2025;48.260;16.432;2022-12-07T11:35:48;99658.22;;;7.07;80.04
4022;BME280;2025;48.260;16.432;2022-12-07T11:38:18;99660.34;;;6.86;80.93
4022;BME280;2025;48.260;16.432;2022-12-07T11:40:48;99651.41;;;6.75;81.58
4022;BME280;2025;48.260;16.432;2022-12-07T11:43:22;99639.53;;;6.49;87.21
4022;BME280;2025;48.260;16.432;2022-12-07T11:45:56;99649.06;;;6.48;87.94
4022;BME280;2025;48.260;16.432;2022-12-07T11:48:33;99639.09;;;6.68;88.56
4022;BME280;2025;48.260;16.432;2022-12-07T11:51:02;99633.81;;;7.46;85.48
4022;BME280;2025;48.260;16.432;2022-12-07T11:53:34;99642.44;;;8.42;84.31
4022;BME280;2025;48.260;16.432;2022-12-07T11:56:07;99639.28;;;8.64;80.68
4022;BME280;2025;48.260;16.432;2022-12-07T11:58:42;99635.38;;;9.68;79.66
4022;BME280;2025;48.260;16.432;2022-12-07T12:01:39;99639.63;;;10.49;68.85
4022;BME280;2025;48.260;16.432;2022-12-07T12:04:23;99634.03;;;11.56;65.22
4022;BME280;2025;48.260;16.432;2022-12-07T12:06:52;99636.75;;;11.88;62.71
4022;BME280;2025;48.260;16.432;2022-12-07T12:09:22;99631.53;;;12.52;60.02
4022;BME280;2025;48.260;16.432;2022-12-07T12:11:56;99626.28;;;12.24;58.73
4022;BME280;2025;48.260;16.432;2022-12-07T12:14:46;99622.72;;;11.79;58.37
4022;BME280;2025;48.260;16.432;2022-12-07T12:17:39;99618.34;;;12.72;58.12
4022;BME280;2025;48.260;16.432;2022-12-07T12:20:20;99615.66;;;12.91;56.21
4022;BME280;2025;48.260;16.432;2022-12-07T12:22:52;99618.28;;;12.89;55.64
4022;BME280;2025;48.260;16.432;2022-12-07T12:25:23;99620.16;;;12.15;56.91
4022;BME280;2025;48.260;16.432;2022-12-07T12:27:52;99619.09;;;13.22;54.14
4022;BME280;2025;48.260;16.432;2022-12-07T12:30:29;99610.41;;;12.84;50.83
4022;BME280;2025;48.260;16.432;2022-12-07T12:33:03;99613.13;;;11.99;51.75
4022;BME280;2025;48.260;16.432;2022-12-07T12:35:34;99619.28;;;12.26;52.69
4022;BME280;2025;48.260;16.432;2022-12-07T12:38:26;99604.31;;;12.72;52.51
4022;BME280;2025;48.260;16.432;2022-12-07T12:40:54;99599.94;;;12.69;51.55
4022;BME280;2025;48.260;16.432;2022-12-07T12:43:54;99618.38;;;11.88;53.49
4022;BME280;2025;48.260;16.432;2022-12-07T12:46:49;99613.09;;;11.84;55.98
4022;BME280;2025;48.260;16.432;2022-12-07T12:55:16;99589.97;;;10.70;58.30
4022;BME280;2025;48.260;16.432;2022-12-07T12:57:48;99598.94;;;11.24;58.13
4022;BME280;2025;48.260;16.432;2022-12-07T13:00:35;99597.22;;;11.29;58.99
4022;BME280;2025;48.260;16.432;2022-12-07T13:03:01;99592.66;;;10.82;58.17
4022;BME280;2025;48.260;16.432;2022-12-07T13:05:30;99600.75;;;11.46;55.61
4022;BME280;2025;48.260;16.432;2022-12-07T13:07:59;99601.59;;;11.36;56.40
4022;BME280;2025;48.260;16.432;2022-12-07T13:10:45;99607.72;;;11.34;56.05
4022;BME280;2025;48.260;16.432;2022-12-07T13:13:35;99607.66;;;11.18;57.30
4022;BME280;2025;48.260;16.432;2022-12-07T13:16:40;99602.31;;;10.94;58.88
4022;BME280;2025;48.260;16.432;2022-12-07T13:22:39;99601.44;;;10.89;60.34
4022;BME280;2025;48.260;16.432;2022-12-07T13:25:10;99603.28;;;11.17;60.96
4022;BME280;2025;48.260;16.432;2022-12-07T13:27:41;99608.34;;;10.73;60.16
4022;BME280;2025;48.260;16.432;2022-12-07T13:30:14;99594.28;;;10.62;60.77
4022;BME280;2025;48.260;16.432;2022-12-07T13:32:41;99604.81;;;10.70;60.06
4022;BME280;2025;48.260;16.432;2022-12-07T13:35:29;99609.22;;;10.77;60.16
4022;BME280;2025;48.260;16.432;2022-12-07T13:37:56;99606.59;;;10.75;58.99
4022;BME280;2025;48.260;16.432;2022-12-07T13:40:23;99616.16;;;10.66;59.77
4022;BME280;2025;48.260;16.432;2022-12-07T13:42:59;99615.28;;;10.67;61.01